sensor_id;sensor_type;location;lat;lon;timestamp;temperature;humidity
22706;DHT22;11520;51.198;4.468;2022-11-15T00:00:24;9.60;99.90
22706;DHT22;11520;51.198;4.468;2022-11-15T00:02:54;9.60;99.90
22706;DHT22;11520;51.198;4.468;2022-11-15T00:05:20;9.70;99.90
22706;DHT22;11520;51.198;4.468;2022-11-15T00:07:46;9.80;99.90
22706;DHT22;11520;51.198;4.468;2022-11-15T00:10:12;10.00;99.90
22706;DHT22;11520;51.198;4.468;2022-11-15T00:12:38;10.00;99.90
22706;DHT22;11520;51.198;4.468;2022-11-15T00:15:04;10.00;99.90
22706;DHT22;11520;51.198;4.468;2022-11-15T00:17:30;10.10;99.90
22706;DHT22;11520;51.198;4.468;2022-11-15T00:19:57;10.20;99.90
22706;DHT22;11520;51.198;4.468;2022-11-15T00:22:23;10.40;99.90
22706;DHT22;11520;51.198;4.468;2022-11-15T00:24:48;10.50;99.90
22706;DHT22;11520;51.198;4.468;2022-11-15T00:27:14;10.50;99.90
22706;DHT22;11520;51.198;4.468;2022-11-15T00:29:40;10.50;99.90
22706;DHT22;11520;51.198;4.468;2022-11-15T00:32:18;10.50;99.90
22706;DHT22;11520;51.198;4.468;2022-11-15T00:34:44;10.50;99.90
22706;DHT22;11520;51.198;4.468;2022-11-15T00:37:10;10.50;99.90
22706;DHT22;11520;51.198;4.468;2022-11-15T00:39:35;10.60;99.90
22706;DHT22;11520;51.198;4.468;2022-11-15T00:42:02;10.60;99.90
22706;DHT22;11520;51.198;4.468;2022-11-15T00:44:29;10.70;99.90
22706;DHT22;11520;51.198;4.468;2022-11-15T00:46:55;10.70;99.90
22706;DHT22;11520;51.198;4.468;2022-11-15T00:49:21;10.70;99.90
22706;DHT22;11520;51.198;4.468;2022-11-15T00:51:46;10.80;99.90
22706;DHT22;11520;51.198;4.468;2022-11-15T00:54:13;10.90;99.90
22706;DHT22;11520;51.198;4.468;2022-11-15T00:56:40;10.90;99.90
22706;DHT22;11520;51.198;4.468;2022-11-15T00:59:06;11.00;99.90
22706;DHT22;11520;51.198;4.468;2022-11-15T01:01:33;11.00;99.90
22706;DHT22;11520;51.198;4.468;2022-11-15T01:03:58;11.10;99.90
22706;DHT22;11520;51.198;4.468;2022-11-15T01:06:24;11.20;99.90
22706;DHT22;11520;51.198;4.468;2022-11-15T01:08:50;11.30;99.90
22706;DHT22;11520;51.198;4.468;2022-11-15T01:11:16;11.30;99.90
22706;DHT22;11520;51.198;4.468;2022-11-15T01:13:42;11.40;99.90
22706;DHT22;11520;51.198;4.468;2022-11-15T01:16:26;11.40;99.90
22706;DHT22;11520;51.198;4.468;2022-11-15T01:18:51;11.40;99.90
22706;DHT22;11520;51.198;4.468;2022-11-15T01:21:19;11.40;99.90
22706;DHT22;11520;51.198;4.468;2022-11-15T01:23:44;11.50;99.90
22706;DHT22;11520;51.198;4.468;2022-11-15T01:26:13;11.50;99.90
22706;DHT22;11520;51.198;4.468;2022-11-15T01:28:41;11.60;99.90
22706;DHT22;11520;51.198;4.468;2022-11-15T01:31:13;11.60;99.90
22706;DHT22;11520;51.198;4.468;2022-11-15T01:33:46;11.50;99.90
22706;DHT22;11520;51.198;4.468;2022-11-15T01:36:17;11.50;99.90
22706;DHT22;11520;51.198;4.468;2022-11-15T01:38:43;11.50;99.90
22706;DHT22;11520;51.198;4.468;2022-11-15T01:41:19;11.60;99.90
22706;DHT22;11520;51.198;4.468;2022-11-15T01:43:48;11.60;99.90
22706;DHT22;11520;51.198;4.468;2022-11-15T01:46:28;11.60;99.90
22706;DHT22;11520;51.198;4.468;2022-11-15T01:48:58;11.60;99.90
22706;DHT22;11520;51.198;4.468;2022-11-15T01:51:26;11.60;99.90
22706;DHT22;11520;51.198;4.468;2022-11-15T01:53:55;11.60;99.90
22706;DHT22;11520;51.198;4.468;2022-11-15T01:56:25;11.50;99.90
22706;DHT22;11520;51.198;4.468;2022-11-15T01:58:57;11.60;99.90
22706;DHT22;11520;51.198;4.468;2022-11-15T02:01:26;11.60;99.90
22706;DHT22;11520;51.198;4.468;2022-11-15T02:04:00;11.60;99.90
22706;DHT22;11520;51.198;4.468;2022-11-15T02:06:27;11.60;99.90
22706;DHT22;11520;51.198;4.468;2022-11-15T02:08:54;11.70;99.90
22706;DHT22;11520;51.198;4.468;2022-11-15T02:11:20;11.70;99.90
22706;DHT22;11520;51.198;4.468;2022-11-15T02:13:46;11.70;99.90
22706;DHT22;11520;51.198;4.468;2022-11-15T02:19:25;11.70;99.90
22706;DHT22;11520;51.198;4.468;2022-11-15T02:30:29;11.70;99.90
22706;DHT22;11520;51.198;4.468;2022-11-15T02:36:00;11.70;99.90
22706;DHT22;11520;51.198;4.468;2022-11-15T02:39:28;11.70;99.90
22706;DHT22;11520;51.198;4.468;2022-11-15T02:41:57;11.70;99.90
22706;DHT22;11520;51.198;4.468;2022-11-15T02:44:44;11.70;99.90
22706;DHT22;11520;51.198;4.468;2022-11-15T02:47:16;11.70;99.90
22706;DHT22;11520;51.198;4.468;2022-11-15T02:49:50;11.70;99.90
22706;DHT22;11520;51.198;4.468;2022-11-15T02:52:17;11.70;99.90
22706;DHT22;11520;51.198;4.468;2022-11-15T02:54:53;11.70;99.90
22706;DHT22;11520;51.198;4.468;2022-11-15T03:02:51;11.70;99.90
22706;DHT22;11520;51.198;4.468;2022-11-15T03:05:25;11.70;99.90
22706;DHT22;11520;51.198;4.468;2022-11-15T03:13:26;11.70;99.90
22706;DHT22;11520;51.198;4.468;2022-11-15T03:16:09;11.70;99.90
22706;DHT22;11520;51.198;4.468;2022-11-15T03:18:40;11.70;99.90
22706;DHT22;11520;51.198;4.468;2022-11-15T03:21:09;11.70;99.90
22706;DHT22;11520;51.198;4.468;2022-11-15T03:23:39;11.70;99.90
22706;DHT22;11520;51.198;4.468;2022-11-15T03:26:08;11.70;99.90
22706;DHT22;11520;51.198;4.468;2022-11-15T03:28:43;11.70;99.90
22706;DHT22;11520;51.198;4.468;2022-11-15T03:31:14;11.70;99.90
22706;DHT22;11520;51.198;4.468;2022-11-15T03:34:02;11.70;99.90
22706;DHT22;11520;51.198;4.468;2022-11-15T03:36:29;11.80;99.90
22706;DHT22;11520;51.198;4.468;2022-11-15T03:39:01;11.80;99.90
22706;DHT22;11520;51.198;4.468;2022-11-15T03:41:50;11.80;99.90
22706;DHT22;11520;51.198;4.468;2022-11-15T03:47:39;11.80;99.90
22706;DHT22;11520;51.198;4.468;2022-11-15T03:50:08;11.70;99.90
22706;DHT22;11520;51.198;4.468;2022-11-15T03:52:36;11.80;99.90
22706;DHT22;11520;51.198;4.468;2022-11-15T03:55:04;11.80;99.90
22706;DHT22;11520;51.198;4.468;2022-11-15T03:57:30;11.70;99.90
22706;DHT22;11520;51.198;4.468;2022-11-15T03:59:56;11.70;99.90
22706;DHT22;11520;51.198;4.468;2022-11-15T04:02:21;11.70;99.90
22706;DHT22;11520;51.198;4.468;2022-11-15T04:04:48;11.60;99.90
22706;DHT22;11520;51.198;4.468;2022-11-15T04:07:14;11.60;99.90
22706;DHT22;11520;51.198;4.468;2022-11-15T04:09:39;11.60;99.90
22706;DHT22;11520;51.198;4.468;2022-11-15T04:12:23;11.60;99.90
22706;DHT22;11520;51.198;4.468;2022-11-15T04:15:07;11.60;99.90
22706;DHT22;11520;51.198;4.468;2022-11-15T04:20:18;11.60;99.90
22706;DHT22;11520;51.198;4.468;2022-11-15T04:23:06;11.60;99.90
22706;DHT22;11520;51.198;4.468;2022-11-15T04:25:52;11.60;99.90
22706;DHT22;11520;51.198;4.468;2022-11-15T04:28:25;11.50;99.90
22706;DHT22;11520;51.198;4.468;2022-11-15T04:30:52;11.50;99.90
22706;DHT22;11520;51.198;4.468;2022-11-15T04:33:18;11.60;99.90
22706;DHT22;11520;51.198;4.468;2022-11-15T04:35:44;11.50;99.90
22706;DHT22;11520;51.198;4.468;2022-11-15T04:38:29;11.50;99.90
22706;DHT22;11520;51.198;4.468;2022-11-15T04:40:55;11.50;99.90
22706;DHT22;11520;51.198;4.468;2022-11-15T04:43:22;11.60;99.90
22706;DHT22;11520;51.198;4.468;2022-11-15T04:45:47;11.50;99.90
22706;DHT22;11520;51.198;4.468;2022-11-15T04:48:14;11.60;99.90
22706;DHT22;11520;51.198;4.468;2022-11-15T04:50:40;11.60;99.90
22706;DHT22;11520;51.198;4.468;2022-11-15T04:53:05;11.50;99.90
22706;DHT22;11520;51.198;4.468;2022-11-15T04:55:32;11.50;99.90
22706;DHT22;11520;51.198;4.468;2022-11-15T04:57:59;11.60;99.90
22706;DHT22;11520;51.198;4.468;2022-11-15T05:00:27;11.50;99.90
22706;DHT22;11520;51.198;4.468;2022-11-15T05:02:53;11.50;99.90
22706;DHT22;11520;51.198;4.468;2022-11-15T05:05:37;11.50;99.90
22706;DHT22;11520;51.198;4.468;2022-11-15T05:08:03;11.50;99.90
22706;DHT22;11520;51.198;4.468;2022-11-15T05:10:29;11.50;99.90
22706;DHT22;11520;51.198;4.468;2022-11-15T05:12:55;11.50;99.90
22706;DHT22;11520;51.198;4.468;2022-11-15T05:15:23;11.40;99.90
22706;DHT22;11520;51.198;4.468;2022-11-15T05:17:48;11.50;99.90
22706;DHT22;11520;51.198;4.468;2022-11-15T05:20:14;11.40;99.90
22706;DHT22;11520;51.198;4.468;2022-11-15T05:22:40;11.40;99.90
22706;DHT22;11520;51.198;4.468;2022-11-15T05:25:07;11.40;99.90
22706;DHT22;11520;51.198;4.468;2022-11-15T05:27:34;11.30;99.90
22706;DHT22;11520;51.198;4.468;2022-11-15T05:30:00;11.30;99.90
22706;DHT22;11520;51.198;4.468;2022-11-15T05:32:27;11.30;99.90
22706;DHT22;11520;51.198;4.468;2022-11-15T05:34:54;11.30;99.90
22706;DHT22;11520;51.198;4.468;2022-11-15T05:37:21;11.30;99.90
22706;DHT22;11520;51.198;4.468;2022-11-15T05:39:46;11.20;99.90
22706;DHT22;11520;51.198;4.468;2022-11-15T05:42:15;11.10;99.90
22706;DHT22;11520;51.198;4.468;2022-11-15T05:44:50;11.20;99.90
22706;DHT22;11520;51.198;4.468;2022-11-15T05:47:23;11.10;99.90
22706;DHT22;11520;51.198;4.468;2022-11-15T05:49:51;11.00;99.90
22706;DHT22;11520;51.198;4.468;2022-11-15T05:52:22;11.00;99.90
22706;DHT22;11520;51.198;4.468;2022-11-15T05:54:48;10.90;99.90
22706;DHT22;11520;51.198;4.468;2022-11-15T05:57:16;10.90;99.90
22706;DHT22;11520;51.198;4.468;2022-11-15T05:59:42;11.00;99.90
22706;DHT22;11520;51.198;4.468;2022-11-15T06:02:09;11.00;99.90
22706;DHT22;11520;51.198;4.468;2022-11-15T06:04:35;11.00;99.90
22706;DHT22;11520;51.198;4.468;2022-11-15T06:07:02;11.00;99.90
22706;DHT22;11520;51.198;4.468;2022-11-15T06:09:28;11.10;99.90
22706;DHT22;11520;51.198;4.468;2022-11-15T06:11:56;11.10;99.90
22706;DHT22;11520;51.198;4.468;2022-11-15T06:14:39;11.10;99.90
22706;DHT22;11520;51.198;4.468;2022-11-15T06:17:06;11.00;99.90
22706;DHT22;11520;51.198;4.468;2022-11-15T06:19:34;11.10;99.90
22706;DHT22;11520;51.198;4.468;2022-11-15T06:25:27;11.00;99.90
22706;DHT22;11520;51.198;4.468;2022-11-15T06:27:57;11.00;99.90
22706;DHT22;11520;51.198;4.468;2022-11-15T06:30:25;10.90;99.90
22706;DHT22;11520;51.198;4.468;2022-11-15T06:32:58;10.90;99.90
22706;DHT22;11520;51.198;4.468;2022-11-15T06:35:29;10.90;99.90
22706;DHT22;11520;51.198;4.468;2022-11-15T06:37:56;10.90;99.90
22706;DHT22;11520;51.198;4.468;2022-11-15T06:40:26;10.80;99.90
22706;DHT22;11520;51.198;4.468;2022-11-15T06:42:57;10.80;99.90
22706;DHT22;11520;51.198;4.468;2022-11-15T06:45:33;10.70;99.90
22706;DHT22;11520;51.198;4.468;2022-11-15T06:48:17;10.70;99.90
22706;DHT22;11520;51.198;4.468;2022-11-15T06:50:56;10.70;99.90
22706;DHT22;11520;51.198;4.468;2022-11-15T06:53:22;10.70;99.90
22706;DHT22;11520;51.198;4.468;2022-11-15T06:55:48;10.70;99.90
22706;DHT22;11520;51.198;4.468;2022-11-15T06:58:14;10.60;99.90
22706;DHT22;11520;51.198;4.468;2022-11-15T07:00:40;10.60;99.90
22706;DHT22;11520;51.198;4.468;2022-11-15T07:03:06;10.50;99.90
22706;DHT22;11520;51.198;4.468;2022-11-15T07:05:40;10.40;99.90
22706;DHT22;11520;51.198;4.468;2022-11-15T07:08:06;10.40;99.90
22706;DHT22;11520;51.198;4.468;2022-11-15T07:10:35;10.40;99.90
22706;DHT22;11520;51.198;4.468;2022-11-15T07:13:00;10.30;99.90
22706;DHT22;11520;51.198;4.468;2022-11-15T07:15:26;10.30;99.90
22706;DHT22;11520;51.198;4.468;2022-11-15T07:17:52;10.20;99.90
22706;DHT22;11520;51.198;4.468;2022-11-15T07:20:18;10.20;99.90
22706;DHT22;11520;51.198;4.468;2022-11-15T07:22:44;10.20;99.90
22706;DHT22;11520;51.198;4.468;2022-11-15T07:25:13;10.10;99.90
22706;DHT22;11520;51.198;4.468;2022-11-15T07:27:38;10.20;99.90
22706;DHT22;11520;51.198;4.468;2022-11-15T07:30:06;10.20;99.90
22706;DHT22;11520;51.198;4.468;2022-11-15T07:32:39;10.10;99.90
22706;DHT22;11520;51.198;4.468;2022-11-15T07:35:05;10.10;99.90
22706;DHT22;11520;51.198;4.468;2022-11-15T07:37:34;10.10;99.90
22706;DHT22;11520;51.198;4.468;2022-11-15T07:40:01;10.00;99.90
22706;DHT22;11520;51.198;4.468;2022-11-15T07:42:27;10.00;99.90
22706;DHT22;11520;51.198;4.468;2022-11-15T07:45:11;10.00;99.90
22706;DHT22;11520;51.198;4.468;2022-11-15T07:47:37;10.10;99.90
22706;DHT22;11520;51.198;4.468;2022-11-15T07:50:05;10.10;99.90
22706;DHT22;11520;51.198;4.468;2022-11-15T07:52:31;10.20;99.90
22706;DHT22;11520;51.198;4.468;2022-11-15T07:54:56;10.20;99.90
22706;DHT22;11520;51.198;4.468;2022-11-15T07:57:22;10.20;99.90
22706;DHT22;11520;51.198;4.468;2022-11-15T07:59:48;10.30;99.90
22706;DHT22;11520;51.198;4.468;2022-11-15T08:02:13;10.30;99.90
22706;DHT22;11520;51.198;4.468;2022-11-15T08:04:41;10.30;99.90
22706;DHT22;11520;51.198;4.468;2022-11-15T08:07:07;10.20;99.90
22706;DHT22;11520;51.198;4.468;2022-11-15T08:09:32;10.30;99.90
22706;DHT22;11520;51.198;4.468;2022-11-15T08:11:58;10.30;99.90
22706;DHT22;11520;51.198;4.468;2022-11-15T08:14:28;10.20;99.90
22706;DHT22;11520;51.198;4.468;2022-11-15T08:16:54;10.30;99.90
22706;DHT22;11520;51.198;4.468;2022-11-15T08:19:26;10.40;99.90
22706;DHT22;11520;51.198;4.468;2022-11-15T08:21:55;10.40;99.90
22706;DHT22;11520;51.198;4.468;2022-11-15T08:24:23;10.60;99.90
22706;DHT22;11520;51.198;4.468;2022-11-15T08:26:50;10.60;99.90
22706;DHT22;11520;51.198;4.468;2022-11-15T08:29:16;10.60;99.90
22706;DHT22;11520;51.198;4.468;2022-11-15T08:31:43;10.70;99.90
22706;DHT22;11520;51.198;4.468;2022-11-15T08:34:09;10.80;99.90
22706;DHT22;11520;51.198;4.468;2022-11-15T08:36:35;10.90;99.90
22706;DHT22;11520;51.198;4.468;2022-11-15T08:39:01;10.90;99.90
22706;DHT22;11520;51.198;4.468;2022-11-15T08:41:31;10.90;99.90
22706;DHT22;11520;51.198;4.468;2022-11-15T08:43:58;11.00;99.90
22706;DHT22;11520;51.198;4.468;2022-11-15T08:46:23;11.00;99.90
22706;DHT22;11520;51.198;4.468;2022-11-15T08:48:49;11.10;99.90
22706;DHT22;11520;51.198;4.468;2022-11-15T08:51:15;11.10;99.90
22706;DHT22;11520;51.198;4.468;2022-11-15T08:53:41;11.10;99.90
22706;DHT22;11520;51.198;4.468;2022-11-15T08:56:12;11.10;99.90
22706;DHT22;11520;51.198;4.468;2022-11-15T08:58:39;11.20;99.90
22706;DHT22;11520;51.198;4.468;2022-11-15T09:01:06;11.20;99.90
22706;DHT22;11520;51.198;4.468;2022-11-15T09:03:39;11.30;99.90
22706;DHT22;11520;51.198;4.468;2022-11-15T09:06:05;11.30;99.90
22706;DHT22;11520;51.198;4.468;2022-11-15T09:08:33;11.20;99.90
22706;DHT22;11520;51.198;4.468;2022-11-15T09:11:07;11.20;99.90
22706;DHT22;11520;51.198;4.468;2022-11-15T09:13:33;11.30;99.90
22706;DHT22;11520;51.198;4.468;2022-11-15T09:16:00;11.30;99.90
22706;DHT22;11520;51.198;4.468;2022-11-15T09:18:53;11.40;99.90
22706;DHT22;11520;51.198;4.468;2022-11-15T09:21:19;11.50;99.90
22706;DHT22;11520;51.198;4.468;2022-11-15T09:23:44;11.50;99.90
22706;DHT22;11520;51.198;4.468;2022-11-15T09:26:11;11.50;99.90
22706;DHT22;11520;51.198;4.468;2022-11-15T09:28:38;11.60;99.90
22706;DHT22;11520;51.198;4.468;2022-11-15T09:31:08;11.70;99.90
22706;DHT22;11520;51.198;4.468;2022-11-15T09:33:34;11.90;99.90
22706;DHT22;11520;51.198;4.468;2022-11-15T09:36:07;12.10;99.90
22706;DHT22;11520;51.198;4.468;2022-11-15T09:38:34;12.20;99.90
22706;DHT22;11520;51.198;4.468;2022-11-15T09:41:16;12.40;99.90
22706;DHT22;11520;51.198;4.468;2022-11-15T09:46:49;12.50;99.90
22706;DHT22;11520;51.198;4.468;2022-11-15T09:49:21;12.30;99.90
22706;DHT22;11520;51.198;4.468;2022-11-15T09:51:53;12.20;99.90
22706;DHT22;11520;51.198;4.468;2022-11-15T09:54:37;12.20;99.90
22706;DHT22;11520;51.198;4.468;2022-11-15T09:57:09;12.20;99.90
22706;DHT22;11520;51.198;4.468;2022-11-15T09:59:44;12.50;99.90
22706;DHT22;11520;51.198;4.468;2022-11-15T10:05:14;13.50;99.90
22706;DHT22;11520;51.198;4.468;2022-11-15T10:07:56;13.50;99.90
22706;DHT22;11520;51.198;4.468;2022-11-15T10:10:44;13.50;99.90
22706;DHT22;11520;51.198;4.468;2022-11-15T10:13:40;13.60;99.90
22706;DHT22;11520;51.198;4.468;2022-11-15T10:19:22;13.70;99.90
22706;DHT22;11520;51.198;4.468;2022-11-15T10:22:17;14.00;99.90
22706;DHT22;11520;51.198;4.468;2022-11-15T10:24:46;14.20;99.90
22706;DHT22;11520;51.198;4.468;2022-11-15T10:27:17;14.40;99.90
22706;DHT22;11520;51.198;4.468;2022-11-15T10:29:48;14.60;99.90
22706;DHT22;11520;51.198;4.468;2022-11-15T10:32:19;14.40;99.90
22706;DHT22;11520;51.198;4.468;2022-11-15T10:34:47;14.20;99.90
22706;DHT22;11520;51.198;4.468;2022-11-15T10:37:13;14.10;99.90
22706;DHT22;11520;51.198;4.468;2022-11-15T10:39:39;13.90;99.90
22706;DHT22;11520;51.198;4.468;2022-11-15T10:42:27;13.70;99.90
22706;DHT22;11520;51.198;4.468;2022-11-15T10:44:53;13.70;99.90
22706;DHT22;11520;51.198;4.468;2022-11-15T10:47:26;13.70;99.90
22706;DHT22;11520;51.198;4.468;2022-11-15T10:50:07;13.90;99.90
22706;DHT22;11520;51.198;4.468;2022-11-15T10:52:50;14.00;99.90
22706;DHT22;11520;51.198;4.468;2022-11-15T10:57:52;14.60;99.90
22706;DHT22;11520;51.198;4.468;2022-11-15T11:00:31;14.40;99.90
22706;DHT22;11520;51.198;4.468;2022-11-15T11:03:05;14.40;99.90
22706;DHT22;11520;51.198;4.468;2022-11-15T11:05:35;14.60;99.90
22706;DHT22;11520;51.198;4.468;2022-11-15T11:08:21;14.70;99.90
22706;DHT22;11520;51.198;4.468;2022-11-15T11:10:59;14.70;99.90
22706;DHT22;11520;51.198;4.468;2022-11-15T11:13:35;14.60;99.90
22706;DHT22;11520;51.198;4.468;2022-11-15T11:25:11;13.90;99.90
22706;DHT22;11520;51.198;4.468;2022-11-15T11:28:05;13.60;99.90
22706;DHT22;11520;51.198;4.468;2022-11-15T11:44:10;13.50;99.90
22706;DHT22;11520;51.198;4.468;2022-11-15T11:46:58;13.50;99.90
22706;DHT22;11520;51.198;4.468;2022-11-15T11:49:28;13.50;99.90
22706;DHT22;11520;51.198;4.468;2022-11-15T11:55:24;13.20;99.90
22706;DHT22;11520;51.198;4.468;2022-11-15T11:58:11;13.20;99.90
22706;DHT22;11520;51.198;4.468;2022-11-15T12:00:43;13.20;99.90
22706;DHT22;11520;51.198;4.468;2022-11-15T12:05:50;13.20;99.90
22706;DHT22;11520;51.198;4.468;2022-11-15T12:08:39;13.20;99.90
22706;DHT22;11520;51.198;4.468;2022-11-15T12:11:27;13.20;99.90
22706;DHT22;11520;51.198;4.468;2022-11-15T12:13:58;13.30;99.90
22706;DHT22;11520;51.198;4.468;2022-11-15T12:16:33;13.40;99.90
22706;DHT22;11520;51.198;4.468;2022-11-15T12:19:04;13.20;99.90
22706;DHT22;11520;51.198;4.468;2022-11-15T12:21:58;13.20;99.90
22706;DHT22;11520;51.198;4.468;2022-11-15T12:27:16;13.20;99.90
22706;DHT22;11520;51.198;4.468;2022-11-15T12:29:48;13.10;99.90
22706;DHT22;11520;51.198;4.468;2022-11-15T12:32:36;13.10;99.90
22706;DHT22;11520;51.198;4.468;2022-11-15T12:35:05;13.00;99.90
22706;DHT22;11520;51.198;4.468;2022-11-15T12:45:29;13.10;99.90
22706;DHT22;11520;51.198;4.468;2022-11-15T12:50:56;13.10;99.90
22706;DHT22;11520;51.198;4.468;2022-11-15T12:58:59;13.10;99.90
22706;DHT22;11520;51.198;4.468;2022-11-15T13:06:52;13.10;99.90
22706;DHT22;11520;51.198;4.468;2022-11-15T13:14:56;13.20;99.90
22706;DHT22;11520;51.198;4.468;2022-11-15T13:17:23;13.20;99.90
22706;DHT22;11520;51.198;4.468;2022-11-15T13:22:47;13.10;99.90
22706;DHT22;11520;51.198;4.468;2022-11-15T13:25:33;13.20;99.90
22706;DHT22;11520;51.198;4.468;2022-11-15T13:28:11;13.30;99.90
22706;DHT22;11520;51.198;4.468;2022-11-15T13:30:54;13.30;99.90
22706;DHT22;11520;51.198;4.468;2022-11-15T13:33:36;13.40;99.90
22706;DHT22;11520;51.198;4.468;2022-11-15T13:36:15;13.40;99.90
22706;DHT22;11520;51.198;4.468;2022-11-15T13:38:43;13.40;99.90
22706;DHT22;11520;51.198;4.468;2022-11-15T13:41:21;13.40;99.90
22706;DHT22;11520;51.198;4.468;2022-11-15T13:43:51;13.50;99.90
22706;DHT22;11520;51.198;4.468;2022-11-15T13:48:54;13.50;99.90
22706;DHT22;11520;51.198;4.468;2022-11-15T13:51:46;13.50;99.90
22706;DHT22;11520;51.198;4.468;2022-11-15T13:56:59;13.40;99.90
22706;DHT22;11520;51.198;4.468;2022-11-15T13:59:29;13.30;99.90
22706;DHT22;11520;51.198;4.468;2022-11-15T14:01:59;13.40;99.90
22706;DHT22;11520;51.198;4.468;2022-11-15T14:04:27;13.30;99.90
22706;DHT22;11520;51.198;4.468;2022-11-15T14:06:59;13.40;99.90
22706;DHT22;11520;51.198;4.468;2022-11-15T14:09:34;13.30;99.90
22706;DHT22;11520;51.198;4.468;2022-11-15T14:12:02;13.30;99.90
22706;DHT22;11520;51.198;4.468;2022-11-15T14:14:29;13.20;99.90
22706;DHT22;11520;51.198;4.468;2022-11-15T14:16:59;13.20;99.90
22706;DHT22;11520;51.198;4.468;2022-11-15T14:24:39;13.30;99.90
22706;DHT22;11520;51.198;4.468;2022-11-15T14:27:26;13.30;99.90
22706;DHT22;11520;51.198;4.468;2022-11-15T14:29:53;13.30;99.90
22706;DHT22;11520;51.198;4.468;2022-11-15T14:32:22;13.30;99.90
22706;DHT22;11520;51.198;4.468;2022-11-15T14:34:53;13.30;99.90
22706;DHT22;11520;51.198;4.468;2022-11-15T14:37:30;13.30;99.90
22706;DHT22;11520;51.198;4.468;2022-11-15T14:40:01;13.20;99.90
22706;DHT22;11520;51.198;4.468;2022-11-15T14:42:27;13.20;99.90
22706;DHT22;11520;51.198;4.468;2022-11-15T14:44:53;13.10;99.90
22706;DHT22;11520;51.198;4.468;2022-11-15T14:47:19;13.20;99.90
22706;DHT22;11520;51.198;4.468;2022-11-15T14:49:45;13.10;99.90
22706;DHT22;11520;51.198;4.468;2022-11-15T14:52:31;13.10;99.90
22706;DHT22;11520;51.198;4.468;2022-11-15T14:55:00;13.10;99.90
22706;DHT22;11520;51.198;4.468;2022-11-15T14:57:29;13.10;99.90
22706;DHT22;11520;51.198;4.468;2022-11-15T14:59:55;13.00;99.90
22706;DHT22;11520;51.198;4.468;2022-11-15T15:02:25;12.90;99.90
22706;DHT22;11520;51.198;4.468;2022-11-15T15:04:51;12.80;99.90
22706;DHT22;11520;51.198;4.468;2022-11-15T15:07:17;12.70;99.90
22706;DHT22;11520;51.198;4.468;2022-11-15T15:09:44;12.60;99.90
22706;DHT22;11520;51.198;4.468;2022-11-15T15:12:21;12.60;99.90
22706;DHT22;11520;51.198;4.468;2022-11-15T15:14:48;12.60;99.90
22706;DHT22;11520;51.198;4.468;2022-11-15T15:17:15;12.50;99.90
22706;DHT22;11520;51.198;4.468;2022-11-15T15:19:42;12.40;99.90
22706;DHT22;11520;51.198;4.468;2022-11-15T15:22:17;12.40;99.90
22706;DHT22;11520;51.198;4.468;2022-11-15T15:24:45;12.40;99.90
22706;DHT22;11520;51.198;4.468;2022-11-15T15:27:11;12.30;99.90
22706;DHT22;11520;51.198;4.468;2022-11-15T15:29:37;12.30;99.90
22706;DHT22;11520;51.198;4.468;2022-11-15T15:32:04;12.30;99.90
22706;DHT22;11520;51.198;4.468;2022-11-15T15:34:30;12.30;99.90
22706;DHT22;11520;51.198;4.468;2022-11-15T15:39:38;12.20;99.90
22706;DHT22;11520;51.198;4.468;2022-11-15T15:42:06;12.20;99.90
22706;DHT22;11520;51.198;4.468;2022-11-15T15:44:31;12.20;99.90
22706;DHT22;11520;51.198;4.468;2022-11-15T15:46:58;12.20;99.90
22706;DHT22;11520;51.198;4.468;2022-11-15T15:49:24;12.10;99.90
22706;DHT22;11520;51.198;4.468;2022-11-15T15:51:50;12.10;99.90
22706;DHT22;11520;51.198;4.468;2022-11-15T15:54:21;12.10;99.90
22706;DHT22;11520;51.198;4.468;2022-11-15T15:56:47;12.10;99.90
22706;DHT22;11520;51.198;4.468;2022-11-15T15:59:12;12.10;99.90
22706;DHT22;11520;51.198;4.468;2022-11-15T16:01:38;12.00;99.90
22706;DHT22;11520;51.198;4.468;2022-11-15T16:04:03;12.00;99.90
22706;DHT22;11520;51.198;4.468;2022-11-15T16:06:36;12.00;99.90
22706;DHT22;11520;51.198;4.468;2022-11-15T16:09:03;11.90;99.90
22706;DHT22;11520;51.198;4.468;2022-11-15T16:11:29;11.90;99.90
22706;DHT22;11520;51.198;4.468;2022-11-15T16:13:56;11.90;99.90
22706;DHT22;11520;51.198;4.468;2022-11-15T16:16:21;11.90;99.90
22706;DHT22;11520;51.198;4.468;2022-11-15T16:18:47;11.90;99.90
22706;DHT22;11520;51.198;4.468;2022-11-15T16:21:13;11.90;99.90
22706;DHT22;11520;51.198;4.468;2022-11-15T16:23:38;11.80;99.90
22706;DHT22;11520;51.198;4.468;2022-11-15T16:26:21;11.80;99.90
22706;DHT22;11520;51.198;4.468;2022-11-15T16:28:47;11.80;99.90
22706;DHT22;11520;51.198;4.468;2022-11-15T16:31:13;11.80;99.90
22706;DHT22;11520;51.198;4.468;2022-11-15T16:33:39;11.80;99.90
22706;DHT22;11520;51.198;4.468;2022-11-15T16:36:13;11.80;99.90
22706;DHT22;11520;51.198;4.468;2022-11-15T16:38:41;11.80;99.90
22706;DHT22;11520;51.198;4.468;2022-11-15T16:41:08;11.80;99.90
22706;DHT22;11520;51.198;4.468;2022-11-15T16:43:33;11.70;99.90
22706;DHT22;11520;51.198;4.468;2022-11-15T16:46:12;11.70;99.90
22706;DHT22;11520;51.198;4.468;2022-11-15T16:48:39;11.70;99.90
22706;DHT22;11520;51.198;4.468;2022-11-15T16:51:05;11.70;99.90
22706;DHT22;11520;51.198;4.468;2022-11-15T16:53:30;11.70;99.90
22706;DHT22;11520;51.198;4.468;2022-11-15T16:55:56;11.70;99.90
22706;DHT22;11520;51.198;4.468;2022-11-15T16:58:22;11.80;99.90
22706;DHT22;11520;51.198;4.468;2022-11-15T17:00:52;11.70;99.90
22706;DHT22;11520;51.198;4.468;2022-11-15T17:03:18;11.70;99.90
22706;DHT22;11520;51.198;4.468;2022-11-15T17:05:44;11.70;99.90
22706;DHT22;11520;51.198;4.468;2022-11-15T17:08:09;11.70;99.90
22706;DHT22;11520;51.198;4.468;2022-11-15T17:10:38;11.80;99.90
22706;DHT22;11520;51.198;4.468;2022-11-15T17:13:11;11.80;99.90
22706;DHT22;11520;51.198;4.468;2022-11-15T17:15:37;11.80;99.90
22706;DHT22;11520;51.198;4.468;2022-11-15T17:18:02;11.70;99.90
22706;DHT22;11520;51.198;4.468;2022-11-15T17:20:28;11.70;99.90
22706;DHT22;11520;51.198;4.468;2022-11-15T17:22:55;11.70;99.90
22706;DHT22;11520;51.198;4.468;2022-11-15T17:25:21;11.70;99.90
22706;DHT22;11520;51.198;4.468;2022-11-15T17:27:47;11.80;99.90
22706;DHT22;11520;51.198;4.468;2022-11-15T17:30:14;11.80;99.90
22706;DHT22;11520;51.198;4.468;2022-11-15T17:32:41;11.80;99.90
22706;DHT22;11520;51.198;4.468;2022-11-15T17:35:08;11.80;99.90
22706;DHT22;11520;51.198;4.468;2022-11-15T17:37:35;11.80;99.90
22706;DHT22;11520;51.198;4.468;2022-11-15T17:40:01;11.90;99.90
22706;DHT22;11520;51.198;4.468;2022-11-15T17:42:27;11.80;99.90
22706;DHT22;11520;51.198;4.468;2022-11-15T17:44:53;11.90;99.90
22706;DHT22;11520;51.198;4.468;2022-11-15T17:47:18;11.90;99.90
22706;DHT22;11520;51.198;4.468;2022-11-15T17:49:44;11.90;99.90